LVNO2: Poteau River At Loving, OK
Data processed at Sat 08Apr2023 04:02 GMT
All information presented herein is the property of the government of the United States of America and may be revised or deleted at any time without prior notice.
Dissemination of this information without the expressed written consent of the Public Affairs Office, Tulsa District U.S. Army Corps of Engineers is strictly prohibited.
These data are gathered electronically and, as presented, have not undergone any form of quality control. These data are not guaranteed to be valid or correct.
Go to home page.
Go to station list.
Upstream stations:
Downstream station:Previous Day
Next Day
Current Day
SHEF ID: LVNO2 Poteau River at Loving, OK
STATION TYPE:
Regulating: Stage = 20.00, Flow = 4523
STAGE RIV-FLOW
ft cfs
Ccp-Rev Ccp-Rev
(US/Central)
04/07 00:00 10.90 375
04/07 01:00 10.87 367
04/07 02:00 10.85 361
04/07 03:00 10.84 359
04/07 04:00 10.83 356
04/07 05:00 10.80 348
04/07 06:00 10.80 348
04/07 07:00 10.79 345
04/07 08:00 10.78 342
04/07 09:00 10.76 337
04/07 10:00 10.75 334
04/07 11:00 10.74 332
04/07 12:00 10.72 326
04/07 13:00 10.72 326
04/07 14:00 10.69 319
04/07 15:00 10.69 319
04/07 16:00 10.68 316
04/07 17:00 10.66 311
04/07 18:00 10.65 309
04/07 19:00 10.65 309
04/07 20:00 10.63 304
04/07 21:00 10.63 304
04/07 22:00 10.62 301
04/07 23:00 ---- ----